createdAt,value
2016-12-24T00:00:47.313Z,-88
2016-12-24T00:01:47.421Z,-88
2016-12-24T00:02:47.495Z,-88
2016-12-24T00:03:47.451Z,-88
2016-12-24T00:04:47.418Z,-89
2016-12-24T00:05:47.449Z,-88
2016-12-24T00:06:47.510Z,-89
2016-12-24T00:07:47.389Z,-90
2016-12-24T00:08:47.483Z,-90
2016-12-24T00:09:47.385Z,-90
2016-12-24T00:10:47.458Z,-89
2016-12-24T00:11:47.442Z,-89
2016-12-24T00:12:47.394Z,-88
2016-12-24T00:13:47.377Z,-89
2016-12-24T00:14:47.664Z,-88
2016-12-24T00:15:47.507Z,-89
2016-12-24T00:16:47.328Z,-89
2016-12-24T00:17:47.434Z,-90
2016-12-24T00:18:47.449Z,-90
2016-12-24T00:19:47.475Z,-90
2016-12-24T00:20:47.406Z,-90
2016-12-24T00:21:47.461Z,-90
2016-12-24T00:22:47.463Z,-90
2016-12-24T00:23:47.420Z,-91
2016-12-24T00:24:47.465Z,-90
2016-12-24T00:25:47.535Z,-90
2016-12-24T00:26:47.461Z,-90
2016-12-24T00:27:47.347Z,-90
2016-12-24T00:28:47.468Z,-90
2016-12-24T00:29:47.409Z,-91
2016-12-24T00:30:47.387Z,-91
2016-12-24T00:31:47.545Z,-90
2016-12-24T00:32:47.462Z,-90
2016-12-24T00:33:47.425Z,-90
2016-12-24T00:34:47.416Z,-90
2016-12-24T00:35:47.503Z,-90
2016-12-24T00:36:47.407Z,-90
2016-12-24T00:37:47.502Z,-91
2016-12-24T00:38:47.370Z,-89
2016-12-24T00:39:47.356Z,-90
2016-12-24T00:40:47.385Z,-90
2016-12-24T00:41:47.545Z,-89
2016-12-24T00:42:47.434Z,-89
2016-12-24T00:43:47.497Z,-88
2016-12-24T00:44:47.422Z,-89
2016-12-24T00:45:47.475Z,-89
2016-12-24T00:46:47.672Z,-89
2016-12-24T00:47:47.557Z,-90
2016-12-24T00:48:47.535Z,-90
2016-12-24T00:49:47.553Z,-90
2016-12-24T00:50:47.487Z,-90
2016-12-24T00:51:47.446Z,-89
2016-12-24T00:52:47.414Z,-90
2016-12-24T00:53:47.446Z,-92
2016-12-24T00:54:47.511Z,-92
2016-12-24T00:55:47.502Z,-91
2016-12-24T00:56:47.511Z,-90
2016-12-24T00:57:47.453Z,-92
2016-12-24T00:58:47.453Z,-93
2016-12-24T00:59:47.537Z,-92
2016-12-24T01:00:47.590Z,-92
2016-12-24T01:01:47.466Z,-90
2016-12-24T01:02:47.814Z,-90
2016-12-24T01:03:47.509Z,-90
2016-12-24T01:04:47.462Z,-91
2016-12-24T01:05:47.391Z,-90
2016-12-24T01:06:47.525Z,-90
2016-12-24T01:07:47.467Z,-91
2016-12-24T01:08:47.517Z,-90
2016-12-24T01:09:47.452Z,-90
2016-12-24T01:10:47.517Z,-91
2016-12-24T01:11:47.518Z,-90
2016-12-24T01:12:47.433Z,-89
2016-12-24T01:13:47.422Z,-89
2016-12-24T01:14:47.528Z,-90
2016-12-24T01:15:47.569Z,-89
2016-12-24T01:16:47.487Z,-90
2016-12-24T01:17:47.586Z,-90
2016-12-24T01:18:47.681Z,-90
2016-12-24T01:19:47.534Z,-90
2016-12-24T01:20:47.600Z,-90
2016-12-24T01:21:47.532Z,-90
2016-12-24T01:22:47.483Z,-90
2016-12-24T01:23:47.441Z,-91
2016-12-24T01:24:47.497Z,-92
2016-12-24T01:25:47.436Z,-91
2016-12-24T01:26:47.490Z,-91
2016-12-24T01:27:47.471Z,-91
2016-12-24T01:28:47.501Z,-91
2016-12-24T01:29:47.552Z,-91
2016-12-24T01:30:47.616Z,-92
2016-12-24T01:31:47.551Z,-92
2016-12-24T01:32:47.494Z,-92
2016-12-24T01:33:47.446Z,-91
2016-12-24T01:34:47.608Z,-92
2016-12-24T01:35:47.554Z,-92
2016-12-24T01:36:47.552Z,-91
2016-12-24T01:37:47.503Z,-91
2016-12-24T01:38:47.493Z,-93
2016-12-24T01:39:47.592Z,-94
2016-12-24T01:40:47.604Z,-94
2016-12-24T01:41:47.539Z,-90
2016-12-24T01:42:47.556Z,-90
2016-12-24T01:43:47.572Z,-88
2016-12-24T01:44:47.604Z,-90
2016-12-24T01:45:47.535Z,-88
2016-12-24T01:46:47.519Z,-88
2016-12-24T01:47:47.525Z,-87
2016-12-24T01:48:47.560Z,-87
2016-12-24T01:49:47.513Z,-87
2016-12-24T01:50:47.610Z,-88
2016-12-24T01:51:47.578Z,-87
2016-12-24T01:52:47.530Z,-87
2016-12-24T01:53:47.535Z,-87
2016-12-24T01:54:47.587Z,-88
2016-12-24T01:55:47.540Z,-87
2016-12-24T01:56:47.567Z,-86
2016-12-24T01:57:47.512Z,-89
2016-12-24T01:58:47.534Z,-88
2016-12-24T01:59:47.605Z,-87
2016-12-24T02:00:47.570Z,-86
2016-12-24T02:01:47.575Z,-87
2016-12-24T02:02:47.532Z,-87
2016-12-24T02:03:47.586Z,-87
2016-12-24T02:04:47.531Z,-87
2016-12-24T02:05:47.615Z,-88
2016-12-24T02:06:47.515Z,-87
2016-12-24T02:07:47.556Z,-87
2016-12-24T02:08:47.614Z,-88
2016-12-24T02:09:47.536Z,-87
2016-12-24T02:10:47.535Z,-87
2016-12-24T02:11:47.485Z,-88
2016-12-24T02:12:47.916Z,-87
2016-12-24T02:13:47.485Z,-88
2016-12-24T02:14:47.618Z,-87
2016-12-24T02:15:47.618Z,-88
2016-12-24T02:16:47.657Z,-86
2016-12-24T02:17:47.501Z,-87
2016-12-24T02:18:47.549Z,-87
2016-12-24T02:19:47.605Z,-87
2016-12-24T02:20:47.576Z,-86
2016-12-24T02:21:47.566Z,-86
2016-12-24T02:22:47.619Z,-86
2016-12-24T02:23:47.681Z,-86
2016-12-24T02:24:47.531Z,-86
2016-12-24T02:25:47.597Z,-86
2016-12-24T02:26:47.595Z,-85
2016-12-24T02:27:47.636Z,-86
2016-12-24T02:28:47.634Z,-86
2016-12-24T02:29:47.567Z,-86
2016-12-24T02:30:47.634Z,-86
2016-12-24T02:31:47.518Z,-86
2016-12-24T02:32:47.676Z,-86
2016-12-24T02:33:47.561Z,-86
2016-12-24T02:34:47.833Z,-86
2016-12-24T02:35:47.565Z,-86
2016-12-24T02:36:47.519Z,-86
2016-12-24T02:37:47.642Z,-85
2016-12-24T02:38:47.644Z,-86
2016-12-24T02:39:47.566Z,-86
2016-12-24T02:40:47.574Z,-86
2016-12-24T02:41:47.576Z,-86
2016-12-24T02:42:47.561Z,-86
2016-12-24T02:43:47.660Z,-85
2016-12-24T02:44:47.577Z,-86
2016-12-24T02:45:47.681Z,-86
2016-12-24T02:46:47.586Z,-86
2016-12-24T02:47:47.633Z,-86
2016-12-24T02:48:47.695Z,-86
2016-12-24T02:49:47.639Z,-86
2016-12-24T02:50:47.747Z,-86
2016-12-24T02:51:47.660Z,-86
2016-12-24T02:52:47.606Z,-86
2016-12-24T02:53:48.237Z,-86
2016-12-24T02:54:47.665Z,-86
2016-12-24T02:55:47.654Z,-86
2016-12-24T02:56:47.602Z,-86
2016-12-24T02:57:47.590Z,-86
2016-12-24T02:58:47.604Z,-86
2016-12-24T02:59:47.545Z,-86
2016-12-24T03:00:47.659Z,-86
2016-12-24T03:01:47.596Z,-86
2016-12-24T03:02:47.659Z,-85
2016-12-24T03:03:47.657Z,-86
2016-12-24T03:04:47.664Z,-86
2016-12-24T03:05:47.604Z,-86
2016-12-24T03:06:47.610Z,-86
2016-12-24T03:07:47.656Z,-86
2016-12-24T03:08:47.716Z,-86
2016-12-24T03:09:47.794Z,-86
2016-12-24T03:10:47.611Z,-86
2016-12-24T03:11:47.733Z,-86
2016-12-24T03:12:47.941Z,-85
2016-12-24T03:13:47.728Z,-87
2016-12-24T03:14:47.749Z,-86
2016-12-24T03:15:47.666Z,-86
2016-12-24T03:16:47.705Z,-86
2016-12-24T03:17:47.646Z,-86
2016-12-24T03:18:47.755Z,-86
2016-12-24T03:19:47.669Z,-86
2016-12-24T03:20:47.988Z,-86
2016-12-24T03:21:47.564Z,-86
2016-12-24T03:22:47.623Z,-86
2016-12-24T03:23:47.721Z,-86
2016-12-24T03:24:47.630Z,-85
2016-12-24T03:25:47.877Z,-86
2016-12-24T03:26:47.758Z,-86
2016-12-24T03:27:47.642Z,-86
2016-12-24T03:28:47.637Z,-85
2016-12-24T03:29:47.652Z,-86
2016-12-24T03:30:47.657Z,-86
2016-12-24T03:31:47.761Z,-86
2016-12-24T03:32:47.691Z,-85
2016-12-24T03:33:47.632Z,-86
2016-12-24T03:34:47.693Z,-86
2016-12-24T03:35:47.700Z,-86
2016-12-24T03:36:47.744Z,-85
2016-12-24T03:37:47.740Z,-86
2016-12-24T03:38:47.592Z,-86
2016-12-24T03:39:47.654Z,-85
2016-12-24T03:40:47.579Z,-85
2016-12-24T03:41:47.916Z,-85
2016-12-24T03:42:47.641Z,-86
2016-12-24T03:43:47.978Z,-86
2016-12-24T03:44:47.721Z,-86
2016-12-24T03:45:47.645Z,-86
2016-12-24T03:46:47.665Z,-85
2016-12-24T03:47:47.668Z,-86
2016-12-24T03:48:47.712Z,-86
2016-12-24T03:49:47.666Z,-86
2016-12-24T03:50:47.598Z,-86
2016-12-24T03:51:47.720Z,-86
2016-12-24T03:52:47.945Z,-86
2016-12-24T03:53:47.607Z,-85
2016-12-24T03:54:47.660Z,-86
2016-12-24T03:55:47.686Z,-86
2016-12-24T03:56:47.722Z,-86
2016-12-24T03:57:47.904Z,-86
2016-12-24T03:58:47.622Z,-86
2016-12-24T03:59:47.758Z,-86
2016-12-24T04:00:47.629Z,-86
2016-12-24T04:01:47.798Z,-86
2016-12-24T04:02:47.822Z,-86
2016-12-24T04:03:47.745Z,-86
2016-12-24T04:04:47.613Z,-86
2016-12-24T04:05:47.802Z,-86
2016-12-24T04:06:47.686Z,-86
2016-12-24T04:07:47.671Z,-86
2016-12-24T04:08:47.810Z,-86
2016-12-24T04:09:47.677Z,-86
2016-12-24T04:10:47.758Z,-86
2016-12-24T04:11:47.689Z,-86
2016-12-24T04:12:47.873Z,-86
2016-12-24T04:13:47.898Z,-86
2016-12-24T04:14:47.768Z,-86
2016-12-24T04:15:47.715Z,-86
2016-12-24T04:16:47.760Z,-86
2016-12-24T04:17:47.740Z,-86
2016-12-24T04:18:47.794Z,-86
2016-12-24T04:19:48.128Z,-86
2016-12-24T04:20:47.702Z,-86
2016-12-24T04:21:47.785Z,-86
2016-12-24T04:22:47.729Z,-86
2016-12-24T04:23:47.834Z,-86
2016-12-24T04:24:48.012Z,-86
2016-12-24T04:25:47.690Z,-86
2016-12-24T04:26:47.709Z,-86
2016-12-24T04:27:47.698Z,-86
2016-12-24T04:28:47.678Z,-86
2016-12-24T04:29:47.986Z,-86
2016-12-24T04:30:47.654Z,-86
2016-12-24T04:31:47.800Z,-86
2016-12-24T04:32:47.842Z,-86
2016-12-24T04:33:47.715Z,-86
2016-12-24T04:34:47.855Z,-86
2016-12-24T04:35:47.729Z,-86
2016-12-24T04:36:47.661Z,-86
2016-12-24T04:37:47.784Z,-86
2016-12-24T04:38:47.847Z,-86
2016-12-24T04:39:47.736Z,-86
2016-12-24T04:40:47.980Z,-87
2016-12-24T04:41:47.812Z,-86
2016-12-24T04:42:47.822Z,-87
2016-12-24T04:43:47.730Z,-87
2016-12-24T04:44:47.788Z,-87
2016-12-24T04:45:48.103Z,-87
2016-12-24T04:46:47.743Z,-87
2016-12-24T04:47:47.676Z,-87
2016-12-24T04:48:47.739Z,-87
2016-12-24T04:49:47.682Z,-87
2016-12-24T04:50:47.738Z,-87
2016-12-24T04:51:47.904Z,-86
2016-12-24T04:52:47.767Z,-87
2016-12-24T04:53:47.742Z,-87
2016-12-24T04:54:47.814Z,-87
2016-12-24T04:55:47.703Z,-87
2016-12-24T04:56:48.012Z,-87
2016-12-24T04:57:47.776Z,-87
2016-12-24T04:58:47.853Z,-87
2016-12-24T04:59:47.754Z,-87
2016-12-24T05:00:47.817Z,-87
2016-12-24T05:01:47.894Z,-87
2016-12-24T05:02:47.719Z,-87
2016-12-24T05:03:47.820Z,-87
2016-12-24T05:04:47.711Z,-87
2016-12-24T05:05:47.792Z,-87
2016-12-24T05:06:47.770Z,-87
2016-12-24T05:07:47.838Z,-87
2016-12-24T05:08:47.770Z,-87
2016-12-24T05:09:47.899Z,-87
2016-12-24T05:10:47.836Z,-87
2016-12-24T05:11:47.852Z,-87
2016-12-24T05:12:47.861Z,-87
2016-12-24T05:13:47.788Z,-87
2016-12-24T05:14:47.965Z,-87
2016-12-24T05:15:47.771Z,-87
2016-12-24T05:16:47.870Z,-87
2016-12-24T05:17:48.011Z,-88
2016-12-24T05:18:47.785Z,-87
2016-12-24T05:19:47.725Z,-87
2016-12-24T05:20:47.866Z,-87
2016-12-24T05:21:47.737Z,-87
2016-12-24T05:22:47.815Z,-87
2016-12-24T05:23:47.907Z,-87
2016-12-24T05:24:47.875Z,-87
2016-12-24T05:25:47.733Z,-87
2016-12-24T05:26:47.841Z,-89
2016-12-24T05:27:47.851Z,-87
2016-12-24T05:28:47.953Z,-88
2016-12-24T05:29:47.754Z,-88
2016-12-24T05:30:47.805Z,-88
2016-12-24T05:31:47.920Z,-87
2016-12-24T05:32:47.805Z,-88
2016-12-24T05:33:47.830Z,-88
2016-12-24T05:34:47.916Z,-87
2016-12-24T05:35:47.871Z,-87
2016-12-24T05:36:47.798Z,-88
2016-12-24T05:37:47.807Z,-87
2016-12-24T05:38:47.819Z,-88
2016-12-24T05:39:47.948Z,-88
2016-12-24T05:40:47.866Z,-88
2016-12-24T05:41:47.822Z,-88
2016-12-24T05:42:47.808Z,-88
2016-12-24T05:43:47.767Z,-87
2016-12-24T05:44:47.858Z,-87
2016-12-24T05:45:47.878Z,-87
2016-12-24T05:46:47.809Z,-87
2016-12-24T05:47:47.821Z,-88
2016-12-24T05:48:47.758Z,-87
2016-12-24T05:49:47.870Z,-88
2016-12-24T05:50:47.880Z,-87
2016-12-24T05:51:47.819Z,-88
2016-12-24T05:52:47.980Z,-87
2016-12-24T05:53:47.771Z,-87
2016-12-24T05:54:47.826Z,-88
2016-12-24T05:55:47.913Z,-88
2016-12-24T05:56:47.948Z,-88
2016-12-24T05:57:47.856Z,-88
2016-12-24T05:58:47.846Z,-88
2016-12-24T05:59:47.832Z,-88
2016-12-24T06:00:47.950Z,-88
2016-12-24T06:01:47.938Z,-88
2016-12-24T06:02:47.899Z,-88
2016-12-24T06:03:47.783Z,-88
2016-12-24T06:04:47.902Z,-88
2016-12-24T06:05:47.943Z,-88
2016-12-24T06:06:47.922Z,-88
2016-12-24T06:07:47.869Z,-88
2016-12-24T06:08:47.798Z,-88
2016-12-24T06:09:47.942Z,-88
2016-12-24T06:10:47.838Z,-88
2016-12-24T06:11:47.925Z,-87
2016-12-24T06:12:47.932Z,-88
2016-12-24T06:13:47.981Z,-87
2016-12-24T06:14:47.924Z,-88
2016-12-24T06:15:47.874Z,-88
2016-12-24T06:16:47.820Z,-88
2016-12-24T06:17:47.867Z,-88
2016-12-24T06:18:47.801Z,-88
2016-12-24T06:19:47.868Z,-88
2016-12-24T06:20:47.946Z,-88
2016-12-24T06:21:48.030Z,-88
2016-12-24T06:22:48.002Z,-88
2016-12-24T06:23:47.981Z,-88
2016-12-24T06:24:47.865Z,-88
2016-12-24T06:25:47.822Z,-88
2016-12-24T06:26:47.901Z,-88
2016-12-24T06:27:47.947Z,-88
2016-12-24T06:28:48.008Z,-88
2016-12-24T06:29:47.868Z,-88
2016-12-24T06:30:47.939Z,-88
2016-12-24T06:31:47.882Z,-88
2016-12-24T06:32:47.965Z,-88
2016-12-24T06:33:47.967Z,-88
2016-12-24T06:34:47.935Z,-88
2016-12-24T06:35:47.986Z,-88
2016-12-24T06:36:48.009Z,-88
2016-12-24T06:37:48.095Z,-88
2016-12-24T06:38:48.030Z,-88
2016-12-24T06:39:47.911Z,-88
2016-12-24T06:40:47.957Z,-88
2016-12-24T06:41:47.839Z,-88
2016-12-24T06:42:47.957Z,-88
2016-12-24T06:43:47.981Z,-88
2016-12-24T06:44:47.973Z,-88
2016-12-24T06:45:47.830Z,-88
2016-12-24T06:46:47.924Z,-88
2016-12-24T06:47:47.844Z,-88
2016-12-24T06:48:48.148Z,-88
2016-12-24T06:49:47.909Z,-88
2016-12-24T06:50:47.854Z,-88
2016-12-24T06:51:48.014Z,-88
2016-12-24T06:52:47.965Z,-88
2016-12-24T06:53:47.896Z,-88
2016-12-24T06:54:47.850Z,-88
2016-12-24T06:55:47.981Z,-88
2016-12-24T06:56:47.922Z,-88
2016-12-24T06:57:47.867Z,-88
2016-12-24T06:58:48.011Z,-88
2016-12-24T06:59:48.004Z,-89
2016-12-24T07:00:47.925Z,-88
2016-12-24T07:01:47.962Z,-88
2016-12-24T07:02:47.931Z,-88
2016-12-24T07:03:47.910Z,-88
2016-12-24T07:04:48.011Z,-88
2016-12-24T07:05:48.036Z,-88
2016-12-24T07:06:47.985Z,-88
2016-12-24T07:07:47.990Z,-89
2016-12-24T07:08:47.994Z,-88
2016-12-24T07:09:47.974Z,-88
2016-12-24T07:10:48.066Z,-87
2016-12-24T07:11:47.962Z,-86
2016-12-24T07:12:47.958Z,-88
2016-12-24T07:13:48.020Z,-88
2016-12-24T07:14:48.074Z,-88
2016-12-24T07:15:48.051Z,-88
2016-12-24T07:16:47.951Z,-88
2016-12-24T07:17:48.015Z,-88
2016-12-24T07:18:48.006Z,-88
2016-12-24T07:19:47.904Z,-88
2016-12-24T07:20:48.021Z,-88
2016-12-24T07:21:47.937Z,-89
2016-12-24T07:22:48.011Z,-89
2016-12-24T07:23:48.014Z,-89
2016-12-24T07:24:47.975Z,-88
2016-12-24T07:25:47.992Z,-88
2016-12-24T07:26:47.899Z,-88
2016-12-24T07:27:47.970Z,-88
2016-12-24T07:28:48.027Z,-88
2016-12-24T07:29:48.010Z,-88
2016-12-24T07:30:48.107Z,-88
2016-12-24T07:31:47.919Z,-88
2016-12-24T07:32:48.091Z,-88
2016-12-24T07:33:48.100Z,-89
2016-12-24T07:34:48.032Z,-89
2016-12-24T07:35:48.034Z,-89
2016-12-24T07:36:48.053Z,-89
2016-12-24T07:37:48.045Z,-88
2016-12-24T07:38:48.025Z,-88
2016-12-24T07:39:48.119Z,-89
2016-12-24T07:40:48.033Z,-89
2016-12-24T07:41:49.029Z,-89
2016-12-24T07:42:48.036Z,-88
2016-12-24T07:43:48.094Z,-89
2016-12-24T07:44:48.033Z,-89
2016-12-24T07:45:48.100Z,-89
2016-12-24T07:46:48.050Z,-89
2016-12-24T07:47:48.013Z,-89
2016-12-24T07:48:47.984Z,-89
2016-12-24T07:49:48.094Z,-88
2016-12-24T07:50:48.111Z,-89
2016-12-24T07:51:47.991Z,-89
2016-12-24T07:52:48.091Z,-89
2016-12-24T07:53:47.992Z,-89
2016-12-24T07:54:48.054Z,-89
2016-12-24T07:55:48.022Z,-89
2016-12-24T07:56:47.925Z,-89
2016-12-24T07:57:48.193Z,-89
2016-12-24T07:58:48.008Z,-89
2016-12-24T07:59:47.993Z,-89
2016-12-24T08:00:48.106Z,-89
2016-12-24T08:01:48.013Z,-89
2016-12-24T08:02:47.931Z,-89
2016-12-24T08:03:48.075Z,-89
2016-12-24T08:04:48.130Z,-89
2016-12-24T08:05:47.949Z,-89
2016-12-24T08:06:48.127Z,-89
2016-12-24T08:07:48.055Z,-89
2016-12-24T08:08:48.076Z,-89
2016-12-24T08:09:47.963Z,-89
2016-12-24T08:10:48.091Z,-89
2016-12-24T08:11:48.019Z,-89
2016-12-24T08:12:47.973Z,-89
2016-12-24T08:13:48.021Z,-89
2016-12-24T08:14:48.150Z,-89
2016-12-24T08:15:48.083Z,-89
2016-12-24T08:16:48.099Z,-89
2016-12-24T08:17:48.073Z,-89
2016-12-24T08:18:48.019Z,-89
2016-12-24T08:19:48.043Z,-89
2016-12-24T08:20:48.017Z,-89
2016-12-24T08:21:48.033Z,-89
2016-12-24T08:22:48.086Z,-89
2016-12-24T08:23:48.025Z,-89
2016-12-24T08:24:47.988Z,-89
2016-12-24T08:25:48.097Z,-89
2016-12-24T08:26:48.158Z,-89
2016-12-24T08:27:48.099Z,-89
2016-12-24T08:28:48.105Z,-89
2016-12-24T08:29:48.091Z,-89
2016-12-24T08:30:48.111Z,-89
2016-12-24T08:31:48.094Z,-89
2016-12-24T08:32:47.992Z,-89
2016-12-24T08:33:48.038Z,-89
2016-12-24T08:34:48.064Z,-89
2016-12-24T08:35:48.033Z,-89
2016-12-24T08:36:48.045Z,-89
2016-12-24T08:37:48.175Z,-89
2016-12-24T08:38:48.095Z,-89
2016-12-24T08:39:48.147Z,-89
2016-12-24T08:40:48.086Z,-90
2016-12-24T08:41:47.990Z,-89
2016-12-24T08:42:48.111Z,-89
2016-12-24T08:43:47.996Z,-89
2016-12-24T08:44:47.986Z,-89
2016-12-24T08:45:48.231Z,-89
2016-12-24T08:46:48.115Z,-89
2016-12-24T08:47:48.001Z,-89
2016-12-24T08:48:48.054Z,-89
2016-12-24T08:49:48.105Z,-89
2016-12-24T08:50:48.072Z,-89
2016-12-24T08:51:48.180Z,-89
2016-12-24T08:52:48.084Z,-89
2016-12-24T08:53:48.323Z,-90
2016-12-24T08:54:48.194Z,-89
2016-12-24T08:55:48.103Z,-89
2016-12-24T08:56:48.112Z,-89
2016-12-24T08:57:48.133Z,-89
2016-12-24T08:58:48.086Z,-89
2016-12-24T08:59:48.158Z,-89
2016-12-24T09:00:48.162Z,-89
2016-12-24T09:01:48.334Z,-89
2016-12-24T09:02:48.102Z,-89
2016-12-24T09:03:48.088Z,-90
2016-12-24T09:04:48.206Z,-89
2016-12-24T09:05:48.067Z,-90
2016-12-24T09:06:48.088Z,-89
2016-12-24T09:07:48.053Z,-89
2016-12-24T09:08:48.137Z,-89
2016-12-24T09:09:48.090Z,-90
2016-12-24T09:10:48.169Z,-89
2016-12-24T09:11:48.165Z,-90
2016-12-24T09:12:48.164Z,-89
2016-12-24T09:13:48.032Z,-88
2016-12-24T09:14:48.102Z,-90
2016-12-24T09:15:48.042Z,-89
2016-12-24T09:16:48.218Z,-88
2016-12-24T09:17:48.203Z,-89
2016-12-24T09:18:48.173Z,-89
2016-12-24T09:19:48.113Z,-89
2016-12-24T09:20:48.158Z,-90
2016-12-24T09:21:48.162Z,-89
2016-12-24T09:22:48.159Z,-89
2016-12-24T09:23:48.261Z,-89
2016-12-24T09:24:48.110Z,-89
2016-12-24T09:25:48.099Z,-89
2016-12-24T09:26:48.180Z,-89
2016-12-24T09:27:48.120Z,-89
2016-12-24T09:28:48.267Z,-89
2016-12-24T09:29:48.204Z,-90
2016-12-24T09:30:48.196Z,-89
2016-12-24T09:31:48.079Z,-89
2016-12-24T09:32:48.056Z,-89
2016-12-24T09:33:48.231Z,-89
2016-12-24T09:34:48.126Z,-90
2016-12-24T09:35:48.131Z,-90
2016-12-24T09:36:48.134Z,-90
2016-12-24T09:37:48.108Z,-89
2016-12-24T09:38:48.138Z,-90
2016-12-24T09:39:48.079Z,-90
2016-12-24T09:40:48.134Z,-89
2016-12-24T09:41:48.073Z,-89
2016-12-24T09:42:48.273Z,-89
2016-12-24T09:43:48.122Z,-89
2016-12-24T09:44:48.208Z,-90
2016-12-24T09:45:48.263Z,-89
2016-12-24T09:46:48.213Z,-89
2016-12-24T09:47:48.141Z,-90
2016-12-24T09:48:48.130Z,-90
2016-12-24T09:49:48.240Z,-89
2016-12-24T09:50:48.208Z,-90
2016-12-24T09:51:48.200Z,-90
2016-12-24T09:52:48.086Z,-89
2016-12-24T09:53:48.167Z,-90
2016-12-24T09:54:48.144Z,-89
2016-12-24T09:55:48.419Z,-91
2016-12-24T09:56:48.141Z,-90
2016-12-24T09:57:48.113Z,-90
2016-12-24T09:58:48.076Z,-90
2016-12-24T09:59:48.292Z,-90
2016-12-24T10:00:48.171Z,-90
2016-12-24T10:01:48.113Z,-90
2016-12-24T10:02:48.287Z,-90
2016-12-24T10:03:48.165Z,-90
2016-12-24T10:04:48.156Z,-90
2016-12-24T10:05:48.147Z,-90
2016-12-24T10:06:48.168Z,-90
2016-12-24T10:07:48.302Z,-90
2016-12-24T10:08:48.161Z,-90
2016-12-24T10:09:48.162Z,-90
2016-12-24T10:10:48.104Z,-90
2016-12-24T10:11:48.298Z,-90
2016-12-24T10:12:48.173Z,-90
2016-12-24T10:13:48.284Z,-89
2016-12-24T10:14:48.251Z,-90
2016-12-24T10:15:48.250Z,-90
2016-12-24T10:16:48.171Z,-90
2016-12-24T10:17:48.186Z,-90
2016-12-24T10:18:48.242Z,-89
2016-12-24T10:19:48.237Z,-90
2016-12-24T10:20:48.257Z,-89
2016-12-24T10:21:48.260Z,-90
2016-12-24T10:22:48.179Z,-89
2016-12-24T10:23:48.192Z,-89
2016-12-24T10:24:48.184Z,-89
2016-12-24T10:25:48.169Z,-89
2016-12-24T10:26:48.427Z,-89
2016-12-24T10:27:48.276Z,-90
2016-12-24T10:28:48.192Z,-89
2016-12-24T10:29:48.259Z,-89
2016-12-24T10:30:48.198Z,-89
2016-12-24T10:31:48.269Z,-89
2016-12-24T10:32:48.280Z,-89
2016-12-24T10:33:48.260Z,-90
2016-12-24T10:34:48.371Z,-89
2016-12-24T10:35:48.260Z,-89
2016-12-24T10:36:48.326Z,-89
2016-12-24T10:37:48.377Z,-89
2016-12-24T10:38:48.204Z,-89
2016-12-24T10:39:48.203Z,-90
2016-12-24T10:40:48.275Z,-89
2016-12-24T10:41:48.276Z,-89
2016-12-24T10:42:48.267Z,-89
2016-12-24T10:43:48.262Z,-89
2016-12-24T10:44:48.212Z,-90
2016-12-24T10:45:48.217Z,-89
2016-12-24T10:46:48.319Z,-89
2016-12-24T10:47:48.216Z,-89
2016-12-24T10:48:48.312Z,-89
2016-12-24T10:49:48.287Z,-89
2016-12-24T10:50:48.227Z,-89
2016-12-24T10:51:48.341Z,-89
2016-12-24T10:52:48.309Z,-89
2016-12-24T10:53:48.329Z,-89
2016-12-24T10:54:48.289Z,-88
2016-12-24T10:55:48.227Z,-90
2016-12-24T10:56:48.188Z,-89
2016-12-24T10:57:48.193Z,-89
2016-12-24T10:58:48.242Z,-89
2016-12-24T10:59:48.298Z,-89
2016-12-24T11:00:48.219Z,-89
2016-12-24T11:01:48.241Z,-88
2016-12-24T11:02:48.238Z,-88
2016-12-24T11:03:48.281Z,-89
2016-12-24T11:04:48.259Z,-88
2016-12-24T11:05:48.256Z,-89
2016-12-24T11:06:48.335Z,-89
2016-12-24T11:07:48.310Z,-88
2016-12-24T11:08:48.228Z,-88
2016-12-24T11:09:48.232Z,-88
2016-12-24T11:10:48.246Z,-88
2016-12-24T11:11:48.258Z,-89
2016-12-24T11:12:48.326Z,-88
2016-12-24T11:13:48.350Z,-88
2016-12-24T11:14:48.200Z,-88
2016-12-24T11:15:48.310Z,-88
2016-12-24T11:16:48.250Z,-89
2016-12-24T11:17:48.267Z,-88
2016-12-24T11:18:48.318Z,-88
2016-12-24T11:19:48.271Z,-88
2016-12-24T11:20:48.272Z,-88
2016-12-24T11:21:48.271Z,-89
2016-12-24T11:22:48.332Z,-88
2016-12-24T11:23:48.415Z,-88
2016-12-24T11:24:48.315Z,-90
2016-12-24T11:25:48.475Z,-89
2016-12-24T11:26:48.371Z,-89
2016-12-24T11:27:48.330Z,-89
2016-12-24T11:28:48.270Z,-89
2016-12-24T11:29:48.286Z,-89
2016-12-24T11:30:48.283Z,-89
2016-12-24T11:31:48.369Z,-89
2016-12-24T11:32:48.218Z,-89
2016-12-24T11:33:48.224Z,-90
2016-12-24T11:34:48.278Z,-89
2016-12-24T11:35:48.292Z,-89
2016-12-24T11:36:48.526Z,-89
2016-12-24T11:37:48.292Z,-89
2016-12-24T11:38:48.277Z,-89
2016-12-24T11:39:48.411Z,-89
2016-12-24T11:40:48.407Z,-89
2016-12-24T11:41:48.522Z,-89
2016-12-24T11:42:48.287Z,-89
2016-12-24T11:43:48.335Z,-89
2016-12-24T11:44:48.230Z,-89
2016-12-24T11:45:48.343Z,-89
2016-12-24T11:46:48.368Z,-88
2016-12-24T11:47:48.366Z,-90
2016-12-24T11:48:48.298Z,-89
2016-12-24T11:49:48.313Z,-89
2016-12-24T11:50:48.232Z,-89
2016-12-24T11:51:48.352Z,-89
2016-12-24T11:52:48.396Z,-89
2016-12-24T11:53:48.244Z,-89
2016-12-24T11:54:48.362Z,-89
2016-12-24T11:55:48.299Z,-89
2016-12-24T11:56:48.299Z,-89
2016-12-24T11:57:50.803Z,-89
2016-12-24T11:58:48.320Z,-88
2016-12-24T11:59:48.579Z,-89
2016-12-24T12:00:48.326Z,-89
2016-12-24T12:01:48.303Z,-88
2016-12-24T12:02:48.443Z,-88
2016-12-24T12:03:48.387Z,-89
2016-12-24T12:04:48.312Z,-88
2016-12-24T12:05:48.322Z,-89
2016-12-24T12:06:48.454Z,-88
2016-12-24T12:07:48.317Z,-89
2016-12-24T12:08:48.336Z,-89
2016-12-24T12:09:48.327Z,-90
2016-12-24T12:10:48.399Z,-90
2016-12-24T12:11:48.443Z,-89
2016-12-24T12:12:48.398Z,-89
2016-12-24T12:13:48.579Z,-89
2016-12-24T12:14:48.275Z,-89
2016-12-24T12:15:48.331Z,-89
2016-12-24T12:16:48.389Z,-89
2016-12-24T12:17:48.454Z,-89
2016-12-24T12:18:48.383Z,-88
2016-12-24T12:19:48.348Z,-89
2016-12-24T12:20:48.323Z,-89
2016-12-24T12:21:48.331Z,-89
2016-12-24T12:22:48.347Z,-89
2016-12-24T12:23:48.405Z,-89
2016-12-24T12:24:48.401Z,-89
2016-12-24T12:25:48.299Z,-89
2016-12-24T12:26:48.355Z,-88
2016-12-24T12:27:48.342Z,-90
2016-12-24T12:28:48.452Z,-89
2016-12-24T12:29:48.489Z,-89
2016-12-24T12:30:48.662Z,-88
2016-12-24T12:31:48.427Z,-89
2016-12-24T12:32:48.418Z,-89
2016-12-24T12:33:48.406Z,-89
2016-12-24T12:34:48.294Z,-88
2016-12-24T12:35:48.385Z,-89
2016-12-24T12:36:48.351Z,-89
2016-12-24T12:37:48.359Z,-89
2016-12-24T12:38:48.561Z,-89
2016-12-24T12:39:48.378Z,-88
2016-12-24T12:40:48.406Z,-89
2016-12-24T12:41:48.470Z,-89
2016-12-24T12:42:48.416Z,-89
2016-12-24T12:43:48.514Z,-89
2016-12-24T12:44:48.430Z,-89
2016-12-24T12:45:48.447Z,-88
2016-12-24T12:46:48.441Z,-89
2016-12-24T12:47:48.491Z,-89
2016-12-24T12:48:48.420Z,-88
2016-12-24T12:49:48.449Z,-89
2016-12-24T12:50:48.426Z,-88
2016-12-24T12:51:48.518Z,-88
2016-12-24T12:52:48.450Z,-88
2016-12-24T12:53:48.386Z,-88
2016-12-24T12:54:48.381Z,-88
2016-12-24T12:55:48.507Z,-88
2016-12-24T12:56:48.456Z,-88
2016-12-24T12:57:48.338Z,-89
2016-12-24T12:58:48.380Z,-88
2016-12-24T12:59:48.568Z,-88
2016-12-24T13:00:48.458Z,-88
2016-12-24T13:01:48.851Z,-89
2016-12-24T13:02:48.403Z,-88
2016-12-24T13:03:48.388Z,-88
2016-12-24T13:04:48.439Z,-89
2016-12-24T13:05:48.333Z,-89
2016-12-24T13:06:48.470Z,-89
2016-12-24T13:07:48.461Z,-88
2016-12-24T13:08:48.398Z,-88
2016-12-24T13:09:48.406Z,-89
2016-12-24T13:10:48.399Z,-88
2016-12-24T13:11:48.471Z,-88
2016-12-24T13:12:48.356Z,-88
2016-12-24T13:13:48.524Z,-88
2016-12-24T13:14:48.425Z,-88
2016-12-24T13:15:48.477Z,-88
2016-12-24T13:16:48.506Z,-87
2016-12-24T13:17:48.530Z,-88
2016-12-24T13:18:48.432Z,-88
2016-12-24T13:19:48.422Z,-87
2016-12-24T13:20:48.541Z,-88
2016-12-24T13:21:48.560Z,-88
2016-12-24T13:22:48.491Z,-88
2016-12-24T13:23:48.510Z,-88
2016-12-24T13:24:48.488Z,-88
2016-12-24T13:25:48.359Z,-88
2016-12-24T13:26:48.429Z,-88
2016-12-24T13:27:48.416Z,-88
2016-12-24T13:28:48.447Z,-88
2016-12-24T13:29:48.500Z,-88
2016-12-24T13:30:48.576Z,-88
2016-12-24T13:31:48.375Z,-87
2016-12-24T13:32:48.433Z,-88
2016-12-24T13:33:48.541Z,-88
2016-12-24T13:34:48.451Z,-88
2016-12-24T13:35:48.510Z,-87
2016-12-24T13:36:48.512Z,-88
2016-12-24T13:37:48.514Z,-87
2016-12-24T13:38:48.442Z,-88
2016-12-24T13:39:48.516Z,-88
2016-12-24T13:40:48.448Z,-88
2016-12-24T13:41:48.544Z,-88
2016-12-24T13:42:48.509Z,-88
2016-12-24T13:43:48.573Z,-88
2016-12-24T13:44:48.544Z,-88
2016-12-24T13:45:48.393Z,-88
2016-12-24T13:46:48.462Z,-88